Time;durP1;ratioP1;P1;durP2;ratioP2;P2;SDS_P1;SDS_P2;PMS_P1;PMS_P2;Temp;Humidity;BMP_temperature;BMP_pressure;BME280_temperature;BME280_humidity;BME280_pressure;Samples;Min_cycle;Max_cycle;Signal;HPM_P1;HPM_P2
2022/06/02 00:00:51;;;;;;;20.83;15.07;;;6.80;99.90;;;;;;4861346;29;20496;-78
2022/06/02 00:03:32;;;;;;;27.92;14.27;;;6.80;99.90;;;;;;4841505;29;20060;-78
2022/06/02 00:06:31;;;;;;;17.02;11.75;;;6.70;99.90;;;;;;4863538;29;20049;-78
2022/06/02 00:09:48;;;;;;;13.48;9.95;;;6.70;99.90;;;;;;4862798;29;20131;-78
2022/06/02 00:12:35;;;;;;;24.45;11.90;;;6.70;99.90;;;;;;4854704;29;20059;-78
2022/06/02 00:15:23;;;;;;;18.75;10.73;;;6.70;99.90;;;;;;4860165;29;20188;-78
2022/06/02 00:18:06;;;;;;;26.25;11.85;;;6.60;99.90;;;;;;4872486;29;20044;-78
2022/06/02 00:20:54;;;;;;;15.67;10.93;;;6.60;99.90;;;;;;4831020;29;20042;-78
2022/06/02 00:23:31;;;;;;;13.23;9.63;;;6.50;99.90;;;;;;4887653;29;20392;-78
2022/06/02 00:26:29;;;;;;;16.90;8.75;;;6.50;99.90;;;;;;4849419;29;20088;-78
2022/06/02 00:29:31;;;;;;;13.02;8.32;;;6.40;99.90;;;;;;4859610;29;20086;-78
2022/06/02 00:32:20;;;;;;;10.57;8.43;;;6.40;99.90;;;;;;4831167;29;20420;-78
2022/06/02 00:35:18;;;;;;;9.68;7.57;;;6.40;99.90;;;;;;4868286;29;20290;-78
2022/06/02 00:38:03;;;;;;;15.93;9.48;;;6.40;99.90;;;;;;4852617;29;20093;-78
2022/06/02 00:40:33;;;;;;;10.77;8.90;;;6.40;99.90;;;;;;4864225;29;20400;-78
2022/06/02 00:43:35;;;;;;;10.68;9.13;;;6.20;99.90;;;;;;4852133;29;20101;-78
2022/06/02 00:46:36;;;;;;;11.77;9.88;;;6.30;99.90;;;;;;4862137;29;20444;-78
2022/06/02 00:49:26;;;;;;;16.33;11.20;;;6.30;99.90;;;;;;4851891;29;20072;-78
2022/06/02 00:52:24;;;;;;;15.18;10.27;;;6.30;99.90;;;;;;4855199;29;20052;-78
2022/06/02 00:58:33;;;;;;;14.70;11.35;;;6.20;99.90;;;;;;4881445;29;20100;-78
2022/06/02 01:01:32;;;;;;;20.30;11.38;;;6.20;99.90;;;;;;4856973;29;20067;-79
2022/06/02 01:04:05;;;;;;;26.58;14.85;;;6.10;99.90;;;;;;4850400;29;20449;-79
2022/06/02 01:06:55;;;;;;;22.52;15.25;;;6.10;99.90;;;;;;4829880;29;20044;-78
2022/06/02 01:10:01;;;;;;;28.58;14.45;;;6.10;99.90;;;;;;4833381;29;20041;-79
2022/06/02 01:12:54;;;;;;;71.43;14.45;;;6.10;99.90;;;;;;4855172;29;20052;-78
2022/06/02 01:15:57;;;;;;;21.45;14.75;;;6.10;99.90;;;;;;4849504;29;20136;-78
2022/06/02 01:18:54;;;;;;;25.63;12.95;;;6.10;99.90;;;;;;4847061;29;20045;-79
2022/06/02 01:21:40;;;;;;;23.77;14.27;;;6.10;99.90;;;;;;4862250;29;20045;-78
2022/06/02 01:24:32;;;;;;;25.83;14.10;;;6.10;99.90;;;;;;4848979;29;20048;-78
2022/06/02 01:27:39;;;;;;;21.02;10.60;;;6.10;99.90;;;;;;4869327;29;20059;-79
2022/06/02 01:30:21;;;;;;;28.27;9.60;;;6.00;99.90;;;;;;4862533;29;20818;-78
2022/06/02 01:33:30;;;;;;;21.50;10.50;;;6.00;99.90;;;;;;4861790;29;20064;-79
2022/06/02 01:36:12;;;;;;;20.90;10.35;;;6.00;99.90;;;;;;4873733;29;20374;-78
2022/06/02 01:39:05;;;;;;;19.00;11.40;;;5.90;99.90;;;;;;4846799;29;20053;-78
2022/06/02 01:42:19;;;;;;;25.17;12.45;;;5.90;99.90;;;;;;4847996;29;20045;-78
2022/06/02 01:45:25;;;;;;;19.52;10.98;;;5.90;99.90;;;;;;4847916;29;20097;-78
2022/06/02 01:48:07;;;;;;;76.95;12.25;;;5.90;99.90;;;;;;4838343;29;20045;-78
2022/06/02 01:51:01;;;;;;;16.13;10.27;;;5.90;99.90;;;;;;4827061;29;20402;-78
2022/06/02 01:53:55;;;;;;;17.58;11.90;;;5.90;99.90;;;;;;4846528;29;20091;-78
2022/06/02 01:56:54;;;;;;;18.02;10.60;;;5.90;99.90;;;;;;4853493;29;20048;-78
2022/06/02 01:59:23;;;;;;;26.60;11.90;;;5.90;99.90;;;;;;4877922;29;20080;-78
2022/06/02 02:02:07;;;;;;;18.90;11.57;;;5.90;99.90;;;;;;4854476;29;20478;-78
2022/06/02 02:05:14;;;;;;;22.27;13.43;;;5.90;99.90;;;;;;4879091;29;20045;-78
2022/06/02 02:08:14;;;;;;;18.20;12.05;;;5.90;99.90;;;;;;4850634;29;20063;-78
2022/06/02 02:11:18;;;;;;;22.65;13.68;;;5.90;99.90;;;;;;4849743;29;20105;-78
2022/06/02 02:13:55;;;;;;;17.63;11.93;;;5.80;99.90;;;;;;4852423;29;20049;-78
2022/06/02 02:16:33;;;;;;;18.77;12.85;;;5.70;99.90;;;;;;4898587;29;20069;-78
2022/06/02 02:19:21;;;;;;;19.85;12.13;;;5.80;99.90;;;;;;4879486;29;20044;-78
2022/06/02 02:22:31;;;;;;;24.02;13.85;;;5.80;99.90;;;;;;4852376;29;20072;-78
2022/06/02 02:25:38;;;;;;;18.45;10.45;;;5.70;99.90;;;;;;4837578;29;20064;-78
2022/06/02 02:28:15;;;;;;;19.42;12.30;;;5.70;99.90;;;;;;4862154;29;20057;-79
2022/06/02 02:30:54;;;;;;;18.80;11.98;;;5.80;99.90;;;;;;4879486;29;20058;-79
2022/06/02 02:33:53;;;;;;;16.77;11.35;;;5.60;99.90;;;;;;4887446;29;20535;-79
2022/06/02 02:36:37;;;;;;;17.73;11.70;;;5.60;99.90;;;;;;4858813;29;20092;-79
2022/06/02 02:39:27;;;;;;;17.08;11.15;;;5.60;99.90;;;;;;4851331;29;20196;-78
2022/06/02 02:42:03;;;;;;;14.70;10.35;;;5.60;99.90;;;;;;4860396;29;20061;-79
2022/06/02 02:44:35;;;;;;;11.80;7.22;;;5.50;99.90;;;;;;4848571;29;20501;-79
2022/06/02 02:47:30;;;;;;;10.23;7.85;;;5.50;99.90;;;;;;4850074;29;20045;-79
2022/06/02 02:50:06;;;;;;;11.30;8.70;;;5.40;99.90;;;;;;4851492;29;20219;-79
2022/06/02 02:52:57;;;;;;;12.90;9.07;;;5.40;99.90;;;;;;4873053;29;20112;-79
2022/06/02 02:55:55;;;;;;;12.90;9.48;;;5.30;99.90;;;;;;4862477;29;20092;-79
2022/06/02 02:58:47;;;;;;;35.65;8.18;;;5.20;99.90;;;;;;4869243;29;20048;-79
2022/06/02 03:01:40;;;;;;;7.03;5.40;;;5.30;99.90;;;;;;4853787;29;20041;-79
2022/06/02 03:04:18;;;;;;;30.05;6.20;;;5.20;99.90;;;;;;4867388;29;20520;-79
2022/06/02 03:06:54;;;;;;;52.85;8.82;;;5.20;99.90;;;;;;4863309;29;20048;-79
2022/06/02 03:09:43;;;;;;;16.15;7.40;;;5.10;99.90;;;;;;4859747;29;20083;-78
2022/06/02 03:12:39;;;;;;;9.93;6.63;;;5.20;99.90;;;;;;4880955;29;20599;-79
2022/06/02 03:15:53;;;;;;;9.05;6.90;;;5.20;99.90;;;;;;4872760;29;20099;-78
2022/06/02 03:18:28;;;;;;;9.50;7.70;;;5.10;99.90;;;;;;4844522;29;20141;-79
2022/06/02 03:21:02;;;;;;;11.02;8.00;;;5.10;99.90;;;;;;4869074;29;20196;-79
2022/06/02 03:24:16;;;;;;;20.50;9.32;;;5.10;99.90;;;;;;4858228;29;20077;-79
2022/06/02 03:27:26;;;;;;;15.63;9.85;;;5.10;99.90;;;;;;4833316;29;20132;-79
2022/06/02 03:30:17;;;;;;;17.08;9.77;;;5.10;99.90;;;;;;4862415;29;20044;-79
2022/06/02 03:33:30;;;;;;;41.67;10.73;;;5.10;99.90;;;;;;4886020;29;20119;-79
2022/06/02 03:36:40;;;;;;;20.88;9.07;;;5.10;99.90;;;;;;4869862;29;20052;-79
2022/06/02 03:39:40;;;;;;;17.48;9.15;;;5.10;99.90;;;;;;4892513;29;20077;-79
2022/06/02 03:42:36;;;;;;;14.85;9.65;;;5.10;99.90;;;;;;4879161;29;20131;-79
2022/06/02 03:45:59;;;;;;;14.27;9.35;;;5.00;99.90;;;;;;4875735;29;20155;-78
2022/06/02 03:48:51;;;;;;;15.70;8.80;;;5.00;99.90;;;;;;4873125;29;20044;-79
2022/06/02 03:51:58;;;;;;;14.00;8.82;;;5.00;99.90;;;;;;4889356;29;20059;-78
2022/06/02 03:55:17;;;;;;;11.32;7.53;;;5.10;99.90;;;;;;4866679;29;20374;-79
2022/06/02 03:58:09;;;;;;;27.40;7.82;;;5.10;99.90;;;;;;4845489;29;20073;-79
2022/06/02 04:00:59;;;;;;;34.08;8.50;;;5.20;99.90;;;;;;4862186;29;20033;-79
2022/06/02 04:04:11;;;;;;;37.75;9.85;;;5.00;99.90;;;;;;4852100;29;20108;-79
2022/06/02 04:07:57;;;;;;;52.63;10.90;;;5.10;99.90;;;;;;4870259;29;20124;-79
2022/06/02 04:11:00;;;;;;;15.65;11.05;;;5.20;99.90;;;;;;4820753;29;20099;-78
2022/06/02 04:14:09;;;;;;;45.95;11.23;;;5.30;99.90;;;;;;4846465;29;20096;-79
2022/06/02 04:17:40;;;;;;;17.35;10.43;;;5.30;99.90;;;;;;4837932;29;20098;-79
2022/06/02 04:20:53;;;;;;;101.32;13.18;;;5.40;99.90;;;;;;4819213;29;20050;-79
2022/06/02 04:23:38;;;;;;;27.48;11.57;;;5.50;99.90;;;;;;4869060;29;20485;-79
2022/06/02 04:26:34;;;;;;;31.05;13.13;;;5.90;99.90;;;;;;4869300;29;20108;-79
2022/06/02 04:29:38;;;;;;;;;;;;;;;;;;;;;
2022/06/02 04:32:46;;;;;;;;;;;;;;;;;;;;;
2022/06/02 04:35:39;;;;;;;28.48;13.40;;;7.30;99.90;;;;;;4874344;29;19919;-79
2022/06/02 04:38:57;;;;;;;28.73;12.57;;;7.80;99.90;;;;;;4885767;29;20099;-79
2022/06/02 04:42:04;;;;;;;18.17;11.38;;;8.20;99.90;;;;;;4852241;29;20041;-79
2022/06/02 04:45:43;;;;;;;52.70;9.57;;;8.80;99.90;;;;;;4837444;29;20071;-79
2022/06/02 04:49:02;;;;;;;33.45;9.00;;;9.40;99.90;;;;;;4844654;29;20085;-79
2022/06/02 04:51:55;;;;;;;13.00;9.27;;;10.20;99.90;;;;;;4844167;29;20053;-79
2022/06/02 04:55:26;;;;;;;12.85;9.25;;;10.80;99.90;;;;;;4876117;29;20045;-79
2022/06/02 04:58:04;;;;;;;9.63;7.80;;;11.40;99.90;;;;;;4839889;29;20055;-80
2022/06/02 05:01:02;;;;;;;17.75;9.35;;;11.80;99.90;;;;;;4868309;29;20568;-80
2022/06/02 05:04:09;;;;;;;10.65;9.63;;;12.10;99.90;;;;;;4877992;29;20529;-78
2022/06/02 05:07:00;;;;;;;10.00;9.00;;;12.40;99.90;;;;;;4848718;29;20049;-79
2022/06/02 05:09:57;;;;;;;9.00;8.10;;;12.60;99.90;;;;;;4850473;29;20040;-80
2022/06/02 05:12:47;;;;;;;10.40;8.63;;;12.90;99.90;;;;;;4859829;29;20285;-79
2022/06/02 05:15:49;;;;;;;8.48;7.50;;;13.20;99.90;;;;;;4836454;29;20149;-78
2022/06/02 05:18:39;;;;;;;9.10;8.20;;;13.70;99.90;;;;;;4847232;29;20053;-78
2022/06/02 05:22:08;;;;;;;8.15;7.35;;;14.20;99.90;;;;;;4853732;29;20056;-78
2022/06/02 05:25:57;;;;;;;9.63;8.45;;;14.70;99.90;;;;;;4876253;29;20045;-78
2022/06/02 05:30:16;;;;;;;;;;;;;;;;;;;;;
2022/06/02 05:32:56;;;;;;;8.15;7.35;;;15.90;99.90;;;;;;4859000;29;20045;-78
2022/06/02 05:36:22;;;;;;;7.07;6.38;;;16.20;99.90;;;;;;4851588;29;20260;-78
2022/06/02 05:39:42;;;;;;;7.82;7.13;;;15.90;99.90;;;;;;4780516;29;20059;-78
2022/06/02 05:42:57;;;;;;;7.65;6.95;;;15.20;99.90;;;;;;4808385;29;20098;-78
2022/06/02 05:45:56;;;;;;;7.63;6.82;;;15.20;99.90;;;;;;4843627;29;20049;-78
2022/06/02 05:48:53;;;;;;;8.75;7.85;;;15.10;99.90;;;;;;4857334;29;20041;-78
2022/06/02 05:52:10;;;;;;;8.60;7.80;;;15.20;99.90;;;;;;4855406;29;20041;-79
2022/06/02 05:55:22;;;;;;;9.82;8.43;;;15.60;99.90;;;;;;4857395;29;20092;-78
2022/06/02 05:58:40;;;;;;;7.85;7.13;;;16.00;99.90;;;;;;4836457;29;20076;-77
2022/06/02 06:01:45;;;;;;;8.38;7.57;;;15.70;99.90;;;;;;4864113;29;20073;-78
2022/06/02 06:05:00;;;;;;;8.68;7.68;;;15.00;99.90;;;;;;4845294;29;20041;-78
2022/06/02 06:12:04;;;;;;;8.30;7.43;;;13.90;99.90;;;;;;4876348;29;20140;-78
2022/06/02 06:15:17;;;;;;;9.25;8.35;;;13.40;99.90;;;;;;4842333;29;20061;-78
2022/06/02 06:18:31;;;;;;;9.57;8.57;;;13.10;99.90;;;;;;4874967;29;20492;-78
2022/06/02 06:21:50;;;;;;;9.40;8.20;;;12.80;99.90;;;;;;4845013;29;20322;-78
2022/06/02 06:24:41;;;;;;;9.25;8.35;;;12.60;99.90;;;;;;4805229;29;20146;-78
2022/06/02 06:27:35;;;;;;;10.57;9.48;;;12.50;99.90;;;;;;4790516;29;20042;-78
2022/06/02 06:30:40;;;;;;;10.73;9.45;;;12.30;99.90;;;;;;4873371;29;20041;-78
2022/06/02 06:33:46;;;;;;;10.77;9.68;;;12.30;99.90;;;;;;4863727;29;20108;-78
2022/06/02 06:36:50;;;;;;;11.95;10.68;;;12.20;99.90;;;;;;4831017;29;20080;-78
2022/06/02 06:40:18;;;;;;;12.07;10.35;;;12.20;99.90;;;;;;4855791;29;20060;-78
2022/06/02 06:43:50;;;;;;;11.60;10.40;;;12.30;99.90;;;;;;4755346;29;20059;-78
2022/06/02 06:47:10;;;;;;;8.13;7.32;;;12.30;99.90;;;;;;4867970;29;20108;-78
2022/06/02 06:54:25;;;;;;;7.28;6.57;;;12.50;99.90;;;;;;4854357;29;20521;-78
2022/06/02 06:57:38;;;;;;;5.80;4.70;;;12.60;99.90;;;;;;4854781;29;20049;-78
2022/06/02 07:00:48;;;;;;;5.05;4.55;;;12.80;99.90;;;;;;4847006;29;20053;-78
2022/06/02 07:03:43;;;;;;;5.53;4.38;;;12.90;99.90;;;;;;4842326;29;20123;-78
2022/06/02 07:07:17;;;;;;;5.35;4.40;;;12.80;99.90;;;;;;4862665;29;20185;-78
2022/06/02 07:10:16;;;;;;;4.50;3.90;;;12.90;99.90;;;;;;4816664;29;20520;-78
2022/06/02 07:13:26;;;;;;;5.22;4.43;;;12.80;99.90;;;;;;4837981;29;20054;-78
2022/06/02 07:16:37;;;;;;;7.65;5.55;;;12.90;99.90;;;;;;4871051;29;20612;-78
2022/06/02 07:19:43;;;;;;;3.85;3.50;;;12.90;99.90;;;;;;4835393;29;20508;-78
2022/06/02 07:22:52;;;;;;;5.38;4.65;;;13.10;99.90;;;;;;4866480;29;20515;-78
2022/06/02 07:25:53;;;;;;;5.22;4.78;;;13.30;99.90;;;;;;4827937;29;20046;-78
2022/06/02 07:28:40;;;;;;;6.40;4.53;;;13.50;99.90;;;;;;4879430;29;20057;-78
2022/06/02 07:31:33;;;;;;;5.53;4.75;;;13.60;99.90;;;;;;4855457;29;20061;-78
2022/06/02 07:34:52;;;;;;;4.43;4.03;;;13.70;99.90;;;;;;4862900;29;20128;-78
2022/06/02 07:38:02;;;;;;;6.15;4.57;;;13.70;99.90;;;;;;4849986;29;20055;-78
2022/06/02 07:41:17;;;;;;;6.38;4.28;;;13.90;99.90;;;;;;4847849;29;20037;-78
2022/06/02 07:44:16;;;;;;;5.22;4.65;;;14.20;99.90;;;;;;4862752;29;20127;-78
2022/06/02 07:47:29;;;;;;;4.45;4.05;;;15.00;99.90;;;;;;4859649;29;20081;-78
2022/06/02 07:50:24;;;;;;;6.07;3.85;;;16.10;99.90;;;;;;4762888;30;20146;-78
2022/06/02 07:53:14;;;;;;;4.57;4.18;;;16.60;99.90;;;;;;4812638;29;20049;-78
2022/06/02 07:56:17;;;;;;;4.68;3.58;;;17.50;99.90;;;;;;4866838;29;20041;-79
2022/06/02 07:59:10;;;;;;;3.05;2.72;;;18.30;99.90;;;;;;4863226;29;20477;-78
2022/06/02 08:01:48;;;;;;;4.35;2.80;;;18.60;99.90;;;;;;4867544;29;20068;-78
2022/06/02 08:04:32;;;;;;;2.90;2.70;;;17.90;99.90;;;;;;4831139;29;20038;-78
2022/06/02 08:07:06;;;;;;;2.75;2.55;;;17.40;99.90;;;;;;4822315;29;20113;-78
2022/06/02 08:09:56;;;;;;;2.25;2.05;;;17.60;99.90;;;;;;4821928;29;20040;-78
2022/06/02 08:12:40;;;;;;;2.50;2.30;;;18.40;99.90;;;;;;4852819;29;20609;-78
2022/06/02 08:15:12;;;;;;;3.67;2.60;;;18.90;99.90;;;;;;4860003;29;20408;-78
2022/06/02 08:18:06;;;;;;;;;;;19.70;99.90;;;;;;4865860;29;20063;-78
2022/06/02 08:21:18;;;;;;;3.30;2.95;;;20.50;99.90;;;;;;4878977;29;19975;-78
2022/06/02 08:24:07;;;;;;;2.58;2.38;;;20.80;99.90;;;;;;4829321;29;20541;-78
2022/06/02 08:26:52;;;;;;;2.95;2.25;;;20.40;99.90;;;;;;4859328;29;20041;-79
2022/06/02 08:29:24;;;;;;;3.35;2.17;;;20.20;99.90;;;;;;4843665;29;20604;-79
2022/06/02 08:32:06;;;;;;;2.57;2.37;;;20.90;99.90;;;;;;4828947;29;20489;-78
2022/06/02 08:35:04;;;;;;;2.00;1.75;;;22.00;99.90;;;;;;4846939;29;20078;-78
2022/06/02 08:37:39;;;;;;;2.50;2.28;;;22.50;99.90;;;;;;4842829;29;20420;-78
2022/06/02 08:40:24;;;;;;;2.10;1.90;;;22.10;99.90;;;;;;4846912;29;20053;-78
2022/06/02 08:43:03;;;;;;;1.70;1.60;;;21.80;99.90;;;;;;4846455;29;20041;-78
2022/06/02 08:45:51;;;;;;;2.60;1.70;;;21.30;99.90;;;;;;4861422;29;20131;-78
2022/06/02 08:48:47;;;;;;;3.30;1.60;;;21.10;99.90;;;;;;4855519;29;20048;-78
2022/06/02 08:51:13;;;;;;;2.05;1.60;;;21.60;99.90;;;;;;4893436;29;20086;-78
2022/06/02 08:54:01;;;;;;;2.67;1.40;;;22.00;99.90;;;;;;4864630;29;20473;-78
2022/06/02 08:56:41;;;;;;;2.92;1.60;;;22.40;99.90;;;;;;4880705;29;20092;-78
2022/06/02 08:59:29;;;;;;;2.63;1.52;;;22.90;99.90;;;;;;4872566;29;20410;-78
2022/06/02 09:02:15;;;;;;;1.88;1.60;;;23.40;99.90;;;;;;4850273;29;20059;-78
2022/06/02 09:05:13;;;;;;;2.05;1.65;;;23.30;99.90;;;;;;4865103;29;20122;-78
2022/06/02 09:08:05;;;;;;;1.98;1.50;;;22.60;99.90;;;;;;4879911;29;20041;-78
2022/06/02 09:10:54;;;;;;;1.65;1.55;;;21.60;99.90;;;;;;4880067;29;20056;-78
2022/06/02 09:13:59;;;;;;;2.17;1.70;;;21.50;99.90;;;;;;4876502;29;20045;-78
2022/06/02 09:16:47;;;;;;;3.15;1.80;;;21.90;99.90;;;;;;4846971;29;20768;-78
2022/06/02 09:19:32;;;;;;;1.73;1.58;;;22.40;99.90;;;;;;4845352;29;20045;-78
2022/06/02 09:22:09;;;;;;;1.77;1.50;;;22.90;99.90;;;;;;4857562;29;20535;-78
2022/06/02 09:25:07;;;;;;;1.80;1.38;;;23.20;99.90;;;;;;4835421;29;20093;-78
2022/06/02 09:27:56;;;;;;;2.35;1.50;;;23.60;99.90;;;;;;4831202;29;20408;-78
2022/06/02 09:30:46;;;;;;;1.63;1.40;;;24.10;99.90;;;;;;4853193;29;20576;-78
2022/06/02 09:33:43;;;;;;;4.13;1.58;;;24.10;99.90;;;;;;4861222;23;20136;-77
2022/06/02 09:36:27;;;;;;;1.50;1.40;;;24.10;99.90;;;;;;4861225;29;20097;-76
2022/06/02 09:39:16;;;;;;;1.67;1.40;;;24.30;99.90;;;;;;4861389;29;20404;-76
2022/06/02 09:42:10;;;;;;;1.73;1.63;;;24.50;99.90;;;;;;4861312;29;20132;-76
2022/06/02 09:44:46;;;;;;;1.90;1.40;;;24.50;99.90;;;;;;4851857;29;20052;-76
2022/06/02 09:47:31;;;;;;;1.73;1.30;;;24.60;99.90;;;;;;4853527;29;20044;-76
2022/06/02 09:50:32;;;;;;;1.80;1.48;;;24.60;99.90;;;;;;4869441;29;20056;-76
2022/06/02 09:53:31;;;;;;;3.25;1.50;;;24.30;99.90;;;;;;4876498;29;20037;-76
2022/06/02 09:56:21;;;;;;;1.75;1.40;;;24.40;99.70;;;;;;4873458;29;20041;-76
2022/06/02 09:58:54;;;;;;;2.28;1.40;;;24.50;99.90;;;;;;4860173;29;20086;-77
2022/06/02 10:01:36;;;;;;;1.67;1.15;;;23.60;99.90;;;;;;4874677;29;20231;-76
2022/06/02 10:04:26;;;;;;;4.47;1.80;;;23.10;99.90;;;;;;4869244;29;20037;-77
2022/06/02 10:07:10;;;;;;;2.17;1.60;;;23.00;99.90;;;;;;4860385;29;20057;-76
2022/06/02 10:09:41;;;;;;;2.42;1.20;;;23.00;99.90;;;;;;4857577;29;20046;-77
2022/06/02 10:13:00;;;;;;;1.27;1.08;;;23.30;99.90;;;;;;4864147;29;20051;-77
2022/06/02 10:15:41;;;;;;;3.17;1.50;;;23.80;99.90;;;;;;4874147;29;20052;-76
2022/06/02 10:18:25;;;;;;;1.45;1.27;;;24.20;97.20;;;;;;4838056;29;20413;-76
2022/06/02 10:21:06;;;;;;;2.47;1.58;;;23.90;97.30;;;;;;4844580;29;20049;-76
2022/06/02 10:23:53;;;;;;;1.13;1.02;;;23.60;99.90;;;;;;4858084;29;20037;-76
2022/06/02 10:26:37;;;;;;;1.90;1.20;;;23.80;99.90;;;;;;4867606;29;20045;-76
2022/06/02 10:29:17;;;;;;;1.90;1.25;;;23.60;99.90;;;;;;4869102;29;20512;-76
2022/06/02 10:31:45;;;;;;;2.78;1.33;;;23.00;99.90;;;;;;4879754;29;20071;-76
2022/06/02 10:34:42;;;;;;;1.70;1.35;;;22.60;99.90;;;;;;4879488;29;20085;-76
2022/06/02 10:37:36;;;;;;;2.38;1.50;;;23.00;99.90;;;;;;4871074;29;20048;-77
2022/06/02 10:40:17;;;;;;;1.60;1.20;;;23.70;99.90;;;;;;4842210;29;20046;-76
2022/06/02 10:42:53;;;;;;;1.75;1.30;;;23.90;96.00;;;;;;4827523;29;20050;-76
2022/06/02 10:45:44;;;;;;;1.35;1.25;;;23.40;99.90;;;;;;4812109;29;20136;-76
2022/06/02 10:48:28;;;;;;;3.08;1.20;;;23.20;99.40;;;;;;4842088;29;20102;-76
2022/06/02 10:51:38;;;;;;;1.20;1.10;;;23.60;99.90;;;;;;4861014;29;20049;-77
2022/06/02 10:54:08;;;;;;;1.30;0.93;;;24.30;96.80;;;;;;4842577;29;20042;-77
2022/06/02 10:57:08;;;;;;;2.03;1.00;;;24.80;98.40;;;;;;4811724;29;20046;-77
2022/06/02 11:00:02;;;;;;;0.80;0.80;;;25.00;91.20;;;;;;4842285;29;20386;-77
2022/06/02 11:02:59;;;;;;;1.38;1.05;;;25.40;86.30;;;;;;4855129;29;20385;-76
2022/06/02 11:05:59;;;;;;;3.30;1.50;;;25.70;90.30;;;;;;4868506;29;20053;-77
2022/06/02 11:08:43;;;;;;;1.75;1.20;;;26.10;93.70;;;;;;4860368;29;20052;-76
2022/06/02 11:11:12;;;;;;;1.52;1.15;;;26.40;84.80;;;;;;4829715;29;20110;-77
2022/06/02 11:13:59;;;;;;;1.40;1.10;;;26.60;92.80;;;;;;4860384;29;20046;-77
2022/06/02 11:16:43;;;;;;;2.05;1.00;;;26.80;90.00;;;;;;4834925;29;21239;-77
2022/06/02 11:19:34;;;;;;;1.35;1.00;;;27.00;79.30;;;;;;4852147;29;20045;-77
2022/06/02 11:22:37;;;;;;;1.85;1.20;;;27.00;75.20;;;;;;4860448;29;20037;-77
2022/06/02 11:25:43;;;;;;;2.28;1.00;;;26.80;77.20;;;;;;4829543;29;20042;-78
2022/06/02 11:28:44;;;;;;;1.38;1.08;;;27.00;76.20;;;;;;4866505;29;20084;-77
2022/06/02 11:31:47;;;;;;;1.70;0.88;;;27.20;73.60;;;;;;4872209;29;20128;-77
2022/06/02 11:34:17;;;;;;;;;;;27.00;70.20;;;;;;4863410;29;20041;-76
2022/06/02 11:37:14;;;;;;;2.25;1.10;;;26.40;64.30;;;;;;4863079;29;19919;-76
2022/06/02 11:39:59;;;;;;;1.65;1.13;;;26.00;78.00;;;;;;4862615;29;20045;-77
2022/06/02 11:43:06;;;;;;;1.75;1.35;;;25.60;84.70;;;;;;4836249;29;20403;-76
2022/06/02 11:46:09;;;;;;;1.95;0.98;;;25.30;78.20;;;;;;4829200;29;20060;-76
2022/06/02 11:49:13;;;;;;;1.20;1.10;;;24.80;82.80;;;;;;4828807;29;20090;-76
2022/06/02 11:52:06;;;;;;;1.95;1.10;;;24.80;83.80;;;;;;4873967;29;20078;-77
2022/06/02 11:55:11;;;;;;;1.20;0.93;;;25.10;80.60;;;;;;4835930;29;20046;-77
2022/06/02 11:57:59;;;;;;;1.58;1.20;;;25.30;75.10;;;;;;4847558;29;20053;-77
2022/06/02 12:00:30;;;;;;;1.42;1.10;;;25.60;80.00;;;;;;4853523;29;20497;-76
2022/06/02 12:03:15;;;;;;;1.20;0.90;;;25.80;81.80;;;;;;4862426;29;20097;-77
2022/06/02 12:06:16;;;;;;;1.05;0.90;;;26.10;81.30;;;;;;4847108;29;20045;-76
2022/06/02 12:09:15;;;;;;;1.70;0.82;;;26.50;79.50;;;;;;4835757;29;20259;-77
2022/06/02 12:12:16;;;;;;;1.60;1.02;;;26.70;66.00;;;;;;4863143;29;20064;-76
2022/06/02 12:14:57;;;;;;;1.63;1.25;;;26.00;65.30;;;;;;4825990;29;20520;-76
2022/06/02 12:17:57;;;;;;;2.50;1.20;;;25.20;71.40;;;;;;4840706;29;20038;-77
2022/06/02 12:20:43;;;;;;;1.25;1.15;;;24.70;72.30;;;;;;4862041;29;20127;-76
2022/06/02 12:23:31;;;;;;;2.00;1.13;;;24.60;77.30;;;;;;4871013;29;20060;-77
2022/06/02 12:26:26;;;;;;;1.40;1.10;;;25.10;74.80;;;;;;4851274;29;20045;-77
2022/06/02 12:29:10;;;;;;;1.20;0.98;;;25.60;59.70;;;;;;4777401;29;20059;-76
2022/06/02 12:31:43;;;;;;;2.38;0.90;;;26.10;56.90;;;;;;4840302;29;20497;-77
2022/06/02 12:34:34;;;;;;;1.42;0.90;;;26.30;69.20;;;;;;4844696;29;20106;-76
2022/06/02 12:37:16;;;;;;;0.85;0.82;;;26.70;75.50;;;;;;4868639;29;20048;-76
2022/06/02 12:40:03;;;;;;;1.20;1.10;;;27.40;74.30;;;;;;4858215;29;20424;-76
2022/06/02 12:42:37;;;;;;;1.17;0.88;;;27.90;60.30;;;;;;4869500;29;20048;-76
2022/06/02 12:45:27;;;;;;;1.90;1.00;;;28.30;71.40;;;;;;4861818;29;20132;-77
2022/06/02 12:48:37;;;;;;;1.25;0.98;;;28.60;63.80;;;;;;4877023;29;20048;-76
2022/06/02 12:51:30;;;;;;;1.25;1.00;;;28.40;60.20;;;;;;4798569;29;20088;-77
2022/06/02 12:54:14;;;;;;;0.90;0.88;;;28.20;62.80;;;;;;4839854;29;20089;-77
2022/06/02 12:56:46;;;;;;;1.02;0.90;;;27.20;59.00;;;;;;4840196;29;20186;-76
2022/06/02 13:00:02;;;;;;;1.15;0.90;;;26.00;61.90;;;;;;4841634;29;20157;-76
2022/06/02 13:02:57;;;;;;;1.65;1.20;;;24.70;61.00;;;;;;4827477;29;20118;-76
2022/06/02 13:05:47;;;;;;;2.13;1.17;;;23.30;62.70;;;;;;4823749;29;20079;-76
2022/06/02 13:08:39;;;;;;;3.95;1.75;;;22.60;70.00;;;;;;4836492;29;20060;-76
2022/06/02 13:11:20;;;;;;;1.70;1.10;;;22.80;69.20;;;;;;4856419;29;20068;-76
2022/06/02 13:14:23;;;;;;;2.80;1.33;;;23.40;67.60;;;;;;4857409;29;20069;-76
2022/06/02 13:16:49;;;;;;;1.15;1.05;;;23.80;65.90;;;;;;4841775;29;20053;-77
2022/06/02 13:19:29;;;;;;;2.13;1.20;;;24.20;69.10;;;;;;4868976;29;20459;-77
2022/06/02 13:22:27;;;;;;;2.45;1.10;;;24.80;67.00;;;;;;4844492;29;20510;-77
2022/06/02 13:24:52;;;;;;;2.60;1.27;;;25.20;67.50;;;;;;4860593;29;20073;-77
2022/06/02 13:27:52;;;;;;;2.00;1.20;;;25.60;66.10;;;;;;4842896;29;20444;-77
2022/06/02 13:30:54;;;;;;;1.08;0.98;;;25.60;61.40;;;;;;4834013;29;20106;-76
2022/06/02 13:33:41;;;;;;;1.10;1.00;;;25.90;67.20;;;;;;4859112;29;20051;-77
2022/06/02 13:36:29;;;;;;;1.90;1.00;;;26.20;62.70;;;;;;4873739;29;20163;-78
2022/06/02 13:39:19;;;;;;;1.55;1.10;;;26.40;62.80;;;;;;4858666;29;20084;-77
2022/06/02 13:42:06;;;;;;;1.00;0.90;;;26.20;63.30;;;;;;4848727;29;20064;-77
2022/06/02 13:45:10;;;;;;;35.58;10.73;;;25.30;65.60;;;;;;4860741;29;20072;-76
2022/06/02 13:48:13;;;;;;;3.20;1.27;;;24.30;68.00;;;;;;4823507;29;20081;-78
2022/06/02 13:51:06;;;;;;;1.00;0.90;;;23.80;71.10;;;;;;4817644;29;20042;-76
2022/06/02 13:53:34;;;;;;;1.58;0.98;;;23.50;74.50;;;;;;4849669;29;20107;-76
2022/06/02 13:59:03;;;;;;;1.90;1.00;;;23.80;75.10;;;;;;4860679;29;20129;-76
2022/06/02 14:02:00;;;;;;;1.85;1.20;;;24.30;79.30;;;;;;4872296;29;20077;-77
2022/06/02 14:04:37;;;;;;;0.80;0.80;;;25.10;62.90;;;;;;4869256;29;20049;-76
2022/06/02 14:07:30;;;;;;;1.23;0.90;;;25.70;65.60;;;;;;4880466;29;20045;-76
2022/06/02 14:10:14;;;;;;;0.80;0.80;;;26.00;61.10;;;;;;4879970;29;20560;-77
2022/06/02 14:13:01;;;;;;;1.13;1.00;;;26.20;60.20;;;;;;4879891;29;20041;-77
2022/06/02 14:15:53;;;;;;;1.42;1.00;;;26.30;60.90;;;;;;4868601;29;20049;-77
2022/06/02 14:18:39;;;;;;;1.30;1.20;;;26.30;61.10;;;;;;4828478;29;20056;-77
2022/06/02 14:21:16;;;;;;;1.63;0.98;;;26.50;63.10;;;;;;4830458;29;20496;-78
2022/06/02 14:24:11;;;;;;;1.02;0.90;;;26.70;66.40;;;;;;4845955;29;20045;-78
2022/06/02 14:26:46;;;;;;;1.25;0.90;;;27.10;67.40;;;;;;4861197;29;20068;-78
2022/06/02 14:29:57;;;;;;;1.38;0.80;;;27.20;59.70;;;;;;4866949;29;20056;-77
2022/06/02 14:32:38;;;;;;;0.80;0.80;;;27.10;61.50;;;;;;4852337;29;20048;-78
2022/06/02 14:35:44;;;;;;;1.30;0.90;;;27.10;65.40;;;;;;4864351;29;20109;-78
2022/06/02 14:38:24;;;;;;;1.67;0.80;;;27.10;58.70;;;;;;4863897;29;20048;-77
2022/06/02 14:41:06;;;;;;;1.08;0.70;;;27.10;62.50;;;;;;4864353;29;20116;-77
2022/06/02 14:44:02;;;;;;;0.88;0.70;;;27.10;62.00;;;;;;4852425;29;20123;-78
2022/06/02 14:46:44;;;;;;;1.05;0.70;;;26.80;56.90;;;;;;4845341;29;20060;-77
2022/06/02 14:49:16;;;;;;;1.38;0.80;;;26.50;62.50;;;;;;4829770;29;20046;-78
2022/06/02 14:51:52;;;;;;;1.15;0.70;;;26.20;65.50;;;;;;4860414;29;20037;-78
2022/06/02 14:54:28;;;;;;;0.80;0.80;;;26.20;65.80;;;;;;4845386;29;20056;-78
2022/06/02 14:57:17;;;;;;;0.68;0.68;;;26.40;61.00;;;;;;4836284;29;20112;-78
2022/06/02 15:00:05;;;;;;;3.20;0.70;;;26.30;61.40;;;;;;4866288;29;20060;-77
2022/06/02 15:02:49;;;;;;;1.27;0.70;;;26.10;57.70;;;;;;4848031;29;20049;-78
2022/06/02 15:05:41;;;;;;;0.75;0.70;;;25.60;60.30;;;;;;4879004;29;20050;-78
2022/06/02 15:08:19;;;;;;;0.88;0.70;;;25.20;61.00;;;;;;4868753;29;20059;-77
2022/06/02 15:11:12;;;;;;;0.73;0.73;;;24.80;63.00;;;;;;4841905;29;20528;-77
2022/06/02 15:14:13;;;;;;;3.15;0.90;;;24.50;63.50;;;;;;4821770;29;20523;-77
2022/06/02 15:17:08;;;;;;;2.83;0.85;;;24.10;61.90;;;;;;4841077;29;20053;-78
2022/06/02 15:20:08;;;;;;;1.10;0.95;;;23.80;64.70;;;;;;4811523;29;20046;-78
2022/06/02 15:23:11;;;;;;;1.10;0.73;;;23.60;66.60;;;;;;4855513;29;20564;-78